Time;durP1;ratioP1;P1;durP2;ratioP2;P2;SDS_P1;SDS_P2;PMS_P1;PMS_P2;Temp;Humidity;BMP_temperature;BMP_pressure;BME280_temperature;BME280_humidity;BME280_pressure;Samples;Min_cycle;Max_cycle;Signal;HPM_P1;HPM_P2
2023/07/19 00:00:24;;;;;;;7.50;3.10;;;18.80;1.00;;;;;;5054204;28;20621;-75
2023/07/19 00:02:49;;;;;;;6.33;3.30;;;18.80;1.00;;;;;;5054082;28;20177;-76
2023/07/19 00:05:15;;;;;;;5.87;3.43;;;18.70;1.00;;;;;;5054095;28;20181;-76
2023/07/19 00:07:41;;;;;;;6.27;3.23;;;18.60;1.00;;;;;;5054242;28;20177;-76
2023/07/19 00:10:07;;;;;;;7.00;3.23;;;18.60;1.00;;;;;;5054357;28;20261;-76
2023/07/19 00:12:33;;;;;;;3.70;3.40;;;18.60;1.00;;;;;;5053835;28;20209;-76
2023/07/19 00:14:58;;;;;;;3.77;2.53;;;18.60;1.00;;;;;;5053789;28;20275;-75
2023/07/19 00:17:24;;;;;;;4.83;3.20;;;18.60;1.00;;;;;;5036117;28;20688;-75
2023/07/19 00:19:49;;;;;;;8.47;2.93;;;18.70;1.00;;;;;;5053887;28;20173;-74
2023/07/19 00:22:15;;;;;;;7.60;3.70;;;18.70;1.00;;;;;;5054082;28;20181;-75
2023/07/19 00:24:41;;;;;;;8.37;3.10;;;18.60;1.00;;;;;;5053940;28;20176;-75
2023/07/19 00:27:06;;;;;;;3.27;2.73;;;18.60;1.00;;;;;;5053934;28;20173;-76
2023/07/19 00:29:32;;;;;;;4.93;3.20;;;18.60;1.00;;;;;;5053468;28;20632;-76
2023/07/19 00:31:58;;;;;;;8.60;3.40;;;18.60;1.00;;;;;;5053972;28;20258;-76
2023/07/19 00:34:24;;;;;;;4.80;3.07;;;18.60;1.00;;;;;;5053661;28;20173;-76
2023/07/19 00:36:49;;;;;;;3.60;2.77;;;18.60;1.00;;;;;;5053683;28;20177;-75
2023/07/19 00:39:15;;;;;;;6.67;3.43;;;18.60;1.00;;;;;;5035815;28;20183;-75
2023/07/19 00:41:40;;;;;;;7.97;3.57;;;18.60;1.00;;;;;;5032290;28;20221;-75
2023/07/19 00:44:06;;;;;;;12.10;3.43;;;18.70;1.00;;;;;;5033162;28;20170;-75
2023/07/19 00:46:33;;;;;;;5.67;3.37;;;18.70;1.00;;;;;;5033595;28;20592;-75
2023/07/19 00:48:59;;;;;;;12.83;4.37;;;18.80;1.00;;;;;;5032340;28;20182;-75
2023/07/19 00:51:25;;;;;;;6.70;4.17;;;18.80;1.00;;;;;;5033608;28;20308;-74
2023/07/19 00:53:52;;;;;;;10.30;3.60;;;18.80;1.00;;;;;;5033628;28;20162;-74
2023/07/19 00:56:19;;;;;;;4.23;3.67;;;18.80;1.00;;;;;;5033322;28;20196;-75
2023/07/19 00:58:46;;;;;;;6.22;3.60;;;18.80;1.00;;;;;;5033185;28;20170;-75
2023/07/19 01:01:12;;;;;;;6.27;3.63;;;19.00;1.00;;;;;;5033154;28;20170;-74
2023/07/19 01:03:37;;;;;;;7.60;3.90;;;19.00;1.00;;;;;;5033519;28;20169;-74
2023/07/19 01:06:06;;;;;;;4.47;3.47;;;19.00;1.00;;;;;;5033425;28;20685;-75
2023/07/19 01:08:31;;;;;;;8.87;3.30;;;19.10;1.00;;;;;;5033632;28;20169;-75
2023/07/19 01:10:58;;;;;;;9.13;3.50;;;19.10;1.00;;;;;;5032082;28;20259;-75
2023/07/19 01:13:23;;;;;;;6.30;3.50;;;19.10;1.00;;;;;;5031711;28;20170;-74
2023/07/19 01:15:49;;;;;;;5.87;2.90;;;19.10;1.00;;;;;;5033349;28;20524;-75
2023/07/19 01:18:14;;;;;;;4.00;3.30;;;19.10;1.00;;;;;;5032023;28;20626;-75
2023/07/19 01:20:40;;;;;;;5.90;3.00;;;19.00;1.00;;;;;;5033204;28;20181;-74
2023/07/19 01:23:06;;;;;;;6.93;2.90;;;19.10;1.00;;;;;;5033810;28;20182;-74
2023/07/19 01:25:32;;;;;;;4.40;2.77;;;19.20;1.00;;;;;;5037673;28;20244;-75
2023/07/19 01:27:57;;;;;;;6.27;2.80;;;19.20;1.00;;;;;;5035738;28;20691;-76
2023/07/19 01:30:23;;;;;;;4.32;3.03;;;19.20;1.00;;;;;;5037212;28;20185;-75
2023/07/19 01:32:49;;;;;;;6.00;2.57;;;19.20;1.00;;;;;;5037068;28;20662;-76
2023/07/19 01:35:15;;;;;;;6.50;2.77;;;19.20;1.00;;;;;;5037390;28;20186;-75
2023/07/19 01:37:41;;;;;;;7.17;3.30;;;19.20;1.00;;;;;;5037136;28;20680;-75
2023/07/19 01:40:09;;;;;;;4.80;3.38;;;19.10;1.00;;;;;;5043812;28;20256;-75
2023/07/19 01:42:34;;;;;;;7.83;3.40;;;19.10;1.00;;;;;;5056707;28;20224;-75
2023/07/19 01:45:01;;;;;;;5.87;3.27;;;18.90;1.00;;;;;;5057028;28;20637;-76
2023/07/19 01:47:28;;;;;;;5.23;3.00;;;18.90;1.00;;;;;;5056803;28;20201;-75
2023/07/19 01:49:53;;;;;;;7.43;3.67;;;19.00;1.00;;;;;;5056795;28;20189;-75
2023/07/19 01:52:19;;;;;;;4.47;2.97;;;18.90;1.00;;;;;;5056692;28;20209;-75
2023/07/19 01:54:45;;;;;;;6.30;3.33;;;18.90;1.00;;;;;;5056809;28;20243;-76
2023/07/19 01:57:11;;;;;;;5.97;3.40;;;18.90;1.00;;;;;;5038526;28;20177;-75
2023/07/19 01:59:37;;;;;;;5.10;3.20;;;19.00;1.00;;;;;;5056576;28;20183;-75
2023/07/19 02:02:03;;;;;;;7.77;3.30;;;18.90;1.00;;;;;;5056677;28;20183;-75
2023/07/19 02:04:29;;;;;;;5.00;3.30;;;18.90;1.00;;;;;;5056904;28;20173;-75
2023/07/19 02:06:55;;;;;;;6.33;3.03;;;18.90;1.00;;;;;;5056603;28;20189;-75
2023/07/19 02:09:21;;;;;;;7.80;3.30;;;18.80;1.00;;;;;;5038476;28;20174;-76
2023/07/19 02:11:47;;;;;;;6.53;3.80;;;18.70;1.00;;;;;;5056447;28;20707;-76
2023/07/19 02:14:13;;;;;;;8.03;3.53;;;18.60;1.00;;;;;;5056383;28;20166;-76
2023/07/19 02:16:38;;;;;;;4.90;3.30;;;18.60;5.00;;;;;;5056340;28;20663;-75
2023/07/19 02:19:05;;;;;;;5.63;3.80;;;18.50;10.20;;;;;;5056253;28;20169;-76
2023/07/19 02:21:31;;;;;;;5.70;3.40;;;18.60;9.80;;;;;;5056545;28;20192;-75
2023/07/19 02:23:57;;;;;;;6.27;3.40;;;18.60;9.90;;;;;;5055966;28;20633;-75
2023/07/19 02:26:23;;;;;;;9.50;3.60;;;18.60;12.70;;;;;;5056135;28;20568;-75
2023/07/19 02:28:49;;;;;;;9.60;4.10;;;18.50;16.70;;;;;;5056201;28;20176;-75
2023/07/19 02:31:15;;;;;;;7.03;3.40;;;18.40;19.10;;;;;;5056009;28;20569;-75
2023/07/19 02:33:40;;;;;;;7.77;3.60;;;18.40;20.50;;;;;;5055832;28;20528;-75
2023/07/19 02:36:06;;;;;;;6.03;3.63;;;18.30;23.50;;;;;;5056152;28;20540;-75
2023/07/19 02:38:32;;;;;;;3.83;3.23;;;18.30;26.20;;;;;;5055524;28;20173;-75
2023/07/19 02:41:01;;;;;;;6.93;3.73;;;18.20;28.40;;;;;;5055408;28;20225;-74
2023/07/19 02:43:27;;;;;;;7.37;3.83;;;18.20;33.80;;;;;;5055679;28;20199;-74
2023/07/19 02:45:53;;;;;;;3.63;3.33;;;18.10;35.30;;;;;;5055693;28;20168;-74
2023/07/19 02:48:20;;;;;;;6.73;3.50;;;18.10;37.50;;;;;;5055646;28;20263;-75
2023/07/19 02:50:47;;;;;;;6.67;3.60;;;18.10;40.00;;;;;;5055686;28;20211;-75
2023/07/19 02:53:12;;;;;;;6.20;3.27;;;18.10;38.70;;;;;;5055193;28;20173;-75
2023/07/19 02:55:38;;;;;;;6.63;3.53;;;18.10;37.90;;;;;;5055578;28;20166;-75
2023/07/19 02:58:04;;;;;;;8.93;3.60;;;18.00;39.60;;;;;;5037612;28;20652;-75
2023/07/19 03:00:29;;;;;;;6.97;3.30;;;18.10;44.20;;;;;;5055604;28;20172;-75
2023/07/19 03:02:55;;;;;;;6.93;3.60;;;18.20;42.80;;;;;;5055367;28;20181;-74
2023/07/19 03:05:21;;;;;;;5.13;3.30;;;18.20;40.60;;;;;;5055149;28;20165;-75
2023/07/19 03:07:47;;;;;;;6.87;3.37;;;18.20;34.60;;;;;;5055408;28;20173;-75
2023/07/19 03:10:13;;;;;;;3.83;3.43;;;18.30;32.90;;;;;;5055302;28;20165;-75
2023/07/19 03:12:38;;;;;;;6.33;3.37;;;18.20;31.40;;;;;;5055135;28;20283;-75
2023/07/19 03:15:05;;;;;;;6.27;3.50;;;18.20;32.60;;;;;;5055141;28;20581;-75
2023/07/19 03:17:30;;;;;;;7.73;3.50;;;18.20;34.30;;;;;;5055006;28;20177;-75
2023/07/19 03:19:56;;;;;;;6.00;3.03;;;18.30;33.30;;;;;;5036774;28;20175;-75
2023/07/19 03:22:21;;;;;;;5.23;3.50;;;18.30;29.50;;;;;;5054728;28;20177;-75
2023/07/19 03:24:47;;;;;;;4.33;3.37;;;18.20;29.40;;;;;;5054652;28;20644;-74
2023/07/19 03:27:13;;;;;;;4.67;3.60;;;18.30;29.90;;;;;;5054993;28;20264;-75
2023/07/19 03:29:39;;;;;;;4.10;3.37;;;18.30;31.60;;;;;;5054788;28;20264;-75
2023/07/19 03:32:05;;;;;;;7.23;3.67;;;18.40;29.10;;;;;;5054656;28;20240;-75
2023/07/19 03:34:30;;;;;;;6.47;3.30;;;18.50;26.30;;;;;;5054655;28;20173;-75
2023/07/19 03:36:56;;;;;;;10.33;3.50;;;18.50;24.10;;;;;;5054145;28;20707;-75
2023/07/19 03:39:21;;;;;;;7.50;3.60;;;18.50;25.90;;;;;;5054494;28;20289;-75
2023/07/19 03:41:48;;;;;;;6.40;3.40;;;18.60;20.60;;;;;;5054678;28;20185;-75
2023/07/19 03:44:13;;;;;;;9.43;3.37;;;18.50;21.50;;;;;;5054581;28;20161;-75
2023/07/19 03:46:39;;;;;;;4.40;3.40;;;18.40;26.40;;;;;;5036014;28;20570;-75
2023/07/19 03:49:04;;;;;;;8.03;3.50;;;18.40;19.00;;;;;;5036454;28;20173;-75
2023/07/19 03:51:30;;;;;;;4.50;3.40;;;18.40;22.10;;;;;;5054000;28;20291;-76
2023/07/19 03:53:56;;;;;;;5.80;3.43;;;18.30;21.50;;;;;;5035952;28;20200;-76
2023/07/19 03:56:21;;;;;;;6.93;3.50;;;18.20;26.40;;;;;;5053947;28;20177;-75
2023/07/19 03:58:49;;;;;;;7.03;3.30;;;18.10;28.90;;;;;;5036561;28;20628;-75
2023/07/19 04:01:15;;;;;;;8.60;3.53;;;18.00;30.80;;;;;;5054030;28;20174;-75
2023/07/19 04:03:41;;;;;;;5.07;3.47;;;18.00;30.40;;;;;;5053985;28;20169;-75
2023/07/19 04:06:07;;;;;;;3.97;3.23;;;18.00;31.10;;;;;;5053313;28;20262;-75
2023/07/19 04:08:34;;;;;;;8.47;4.00;;;18.10;27.10;;;;;;5053995;28;20204;-75
2023/07/19 04:10:59;;;;;;;5.23;3.33;;;18.20;23.80;;;;;;5035345;28;20220;-75
2023/07/19 04:13:26;;;;;;;8.23;3.13;;;18.20;13.80;;;;;;5053868;28;20678;-75
2023/07/19 04:15:52;;;;;;;6.27;3.63;;;18.20;14.20;;;;;;5053549;28;20212;-75
2023/07/19 04:18:17;;;;;;;4.93;3.40;;;18.20;13.50;;;;;;5035883;28;20204;-75
2023/07/19 04:20:43;;;;;;;7.13;3.13;;;18.20;6.70;;;;;;5053009;28;20173;-75
2023/07/19 04:23:09;;;;;;;8.63;3.03;;;18.20;1.00;;;;;;5035315;28;20178;-76
2023/07/19 04:25:34;;;;;;;5.57;3.30;;;18.10;1.00;;;;;;5053861;28;20181;-75
2023/07/19 04:28:00;;;;;;;6.67;3.20;;;18.20;1.00;;;;;;5035716;28;20177;-76
2023/07/19 04:30:26;;;;;;;7.40;3.57;;;18.20;1.00;;;;;;5053373;28;20170;-75
2023/07/19 04:32:54;;;;;;;10.23;3.60;;;18.20;1.00;;;;;;5053113;28;20242;-75
2023/07/19 04:35:23;;;;;;;5.63;3.03;;;18.30;1.00;;;;;;5053210;28;20165;-75
2023/07/19 04:37:49;;;;;;;5.57;3.20;;;18.30;1.00;;;;;;5053368;28;20177;-76
2023/07/19 04:40:16;;;;;;;6.17;3.20;;;18.30;1.00;;;;;;5053251;28;20302;-75
2023/07/19 04:42:42;;;;;;;7.17;3.23;;;18.40;1.00;;;;;;5053240;28;20181;-75
2023/07/19 04:45:08;;;;;;;9.43;3.30;;;18.50;1.00;;;;;;5035209;28;20169;-75
2023/07/19 04:47:36;;;;;;;5.70;3.50;;;18.50;1.00;;;;;;5053363;28;20180;-76
2023/07/19 04:50:08;;;;;;;5.23;3.37;;;18.60;1.00;;;;;;5052917;28;20177;-75
2023/07/19 04:52:34;;;;;;;5.50;3.37;;;18.60;1.00;;;;;;5052694;28;20274;-75
2023/07/19 04:55:01;;;;;;;7.30;3.43;;;18.70;1.00;;;;;;5053088;28;20521;-75
2023/07/19 04:57:27;;;;;;;8.43;3.17;;;18.60;1.00;;;;;;5052656;28;20173;-75
2023/07/19 04:59:53;;;;;;;5.57;2.87;;;18.70;1.00;;;;;;5052856;28;20666;-74
2023/07/19 05:02:18;;;;;;;5.47;3.05;;;18.70;1.00;;;;;;5052640;28;20185;-76
2023/07/19 05:04:44;;;;;;;9.90;3.10;;;18.80;1.00;;;;;;5052468;28;20173;-75
2023/07/19 05:07:09;;;;;;;6.57;3.50;;;18.80;1.00;;;;;;5052732;28;20549;-76
2023/07/19 05:09:35;;;;;;;6.90;3.23;;;18.80;1.00;;;;;;5053227;28;20183;-74
2023/07/19 05:12:01;;;;;;;5.90;3.40;;;18.80;1.00;;;;;;5052496;28;20729;-74
2023/07/19 05:14:27;;;;;;;4.47;2.73;;;18.80;1.00;;;;;;5052727;28;20204;-75
2023/07/19 05:16:52;;;;;;;6.90;3.20;;;19.00;1.00;;;;;;5053674;28;20189;-73
2023/07/19 05:19:18;;;;;;;5.97;3.07;;;19.20;1.00;;;;;;5052177;28;20231;-73
2023/07/19 05:21:43;;;;;;;4.47;3.10;;;19.60;1.00;;;;;;5052730;28;20640;-74
2023/07/19 05:24:09;;;;;;;10.50;3.30;;;20.10;1.00;;;;;;5052548;28;20183;-75
2023/07/19 05:26:34;;;;;;;10.18;3.53;;;20.50;1.00;;;;;;5052309;28;20170;-74
2023/07/19 05:29:00;;;;;;;7.38;3.10;;;20.40;1.00;;;;;;5052697;28;20169;-75
2023/07/19 05:31:26;;;;;;;7.55;3.00;;;20.50;1.00;;;;;;5052588;28;20718;-74
2023/07/19 05:33:51;;;;;;;6.05;2.70;;;20.30;1.00;;;;;;5052106;28;20169;-74
2023/07/19 05:36:17;;;;;;;6.70;3.17;;;20.10;1.00;;;;;;5052445;28;20173;-74
2023/07/19 05:38:42;;;;;;;6.00;2.80;;;20.20;1.00;;;;;;5052676;28;20165;-75
2023/07/19 05:41:08;;;;;;;10.93;3.10;;;20.10;1.00;;;;;;5052138;28;20220;-75
2023/07/19 05:43:34;;;;;;;5.35;2.90;;;20.10;1.00;;;;;;5052517;28;20172;-74
2023/07/19 05:46:07;;;;;;;5.30;3.17;;;20.10;1.00;;;;;;5052758;28;20177;-74
2023/07/19 05:48:33;;;;;;;6.72;2.97;;;20.20;1.00;;;;;;5051540;28;20161;-75
2023/07/19 05:51:04;;;;;;;8.35;3.17;;;20.30;1.00;;;;;;5051996;28;20209;-75
2023/07/19 05:53:30;;;;;;;6.47;3.15;;;20.50;1.00;;;;;;5051620;28;20272;-75
2023/07/19 05:55:56;;;;;;;6.68;3.13;;;20.30;1.00;;;;;;5052263;28;20256;-75
2023/07/19 05:58:22;;;;;;;3.50;2.65;;;20.30;1.00;;;;;;5052345;28;20257;-75
2023/07/19 06:00:48;;;;;;;5.53;3.10;;;20.40;1.00;;;;;;5052049;28;20204;-76
2023/07/19 06:03:17;;;;;;;7.38;3.17;;;20.30;1.00;;;;;;5051416;28;20189;-75
2023/07/19 06:05:44;;;;;;;10.45;3.10;;;19.90;1.00;;;;;;5052318;28;20192;-75
2023/07/19 06:08:13;;;;;;;8.70;3.47;;;20.00;1.00;;;;;;5052266;28;20169;-73
2023/07/19 06:10:39;;;;;;;5.88;3.20;;;20.10;1.00;;;;;;5055030;28;20169;-74
2023/07/19 06:13:06;;;;;;;11.18;3.58;;;20.30;1.00;;;;;;5055135;28;20184;-74
2023/07/19 06:15:34;;;;;;;8.68;3.50;;;20.20;1.00;;;;;;5055861;28;20704;-74
2023/07/19 06:18:02;;;;;;;4.45;3.47;;;20.30;1.00;;;;;;5055271;28;20208;-74
2023/07/19 06:20:27;;;;;;;6.88;3.20;;;20.40;1.00;;;;;;5055484;28;20197;-74
2023/07/19 06:22:53;;;;;;;8.00;3.47;;;20.50;1.00;;;;;;5055582;28;20603;-74
2023/07/19 06:25:18;;;;;;;8.18;3.30;;;20.40;1.00;;;;;;5055738;28;20174;-74
2023/07/19 06:27:44;;;;;;;8.98;3.42;;;20.50;1.00;;;;;;5055266;28;20184;-75
2023/07/19 06:30:11;;;;;;;5.65;3.05;;;20.60;1.00;;;;;;5055162;28;20200;-74
2023/07/19 06:32:37;;;;;;;7.18;3.55;;;20.70;1.00;;;;;;5054922;28;20208;-74
2023/07/19 06:35:08;;;;;;;5.97;2.83;;;20.70;1.00;;;;;;5055396;28;20174;-74
2023/07/19 06:37:34;;;;;;;4.20;2.80;;;20.70;1.00;;;;;;5055429;28;20263;-73
2023/07/19 06:40:02;;;;;;;5.63;2.35;;;20.30;1.00;;;;;;5055303;28;20252;-74
2023/07/19 06:42:28;;;;;;;3.58;2.63;;;20.20;1.00;;;;;;5055228;28;20624;-74
2023/07/19 06:44:54;;;;;;;3.25;2.42;;;20.50;1.00;;;;;;5054889;28;20216;-74
2023/07/19 06:47:19;;;;;;;7.13;2.67;;;20.50;1.00;;;;;;5037210;28;20174;-75
2023/07/19 06:49:45;;;;;;;8.15;2.70;;;20.30;1.00;;;;;;5055180;28;20547;-74
2023/07/19 06:52:11;;;;;;;6.10;2.40;;;20.40;1.00;;;;;;5055462;28;20255;-74
2023/07/19 06:54:36;;;;;;;4.90;2.88;;;20.50;1.00;;;;;;5054855;28;20256;-74
2023/07/19 06:57:02;;;;;;;4.97;2.50;;;20.50;1.00;;;;;;5036824;28;20169;-75
2023/07/19 06:59:28;;;;;;;3.22;2.50;;;20.40;1.00;;;;;;5054815;28;20176;-75
2023/07/19 07:01:54;;;;;;;8.40;3.00;;;20.30;1.00;;;;;;5054933;28;20169;-75
2023/07/19 07:04:19;;;;;;;5.20;2.30;;;20.40;1.00;;;;;;5054459;28;20176;-75
2023/07/19 07:06:45;;;;;;;4.20;2.20;;;20.50;1.00;;;;;;5054483;28;20523;-73
2023/07/19 07:09:11;;;;;;;4.32;2.08;;;20.60;1.00;;;;;;5054984;28;20181;-73
2023/07/19 07:11:37;;;;;;;3.03;1.95;;;20.80;1.00;;;;;;5051783;28;20683;-73
2023/07/19 07:14:02;;;;;;;3.42;2.00;;;21.40;99.90;;;;;;5067494;28;20180;-74
2023/07/19 07:16:28;;;;;;;5.50;2.22;;;21.80;1.00;;;;;;5072909;28;20230;-72
2023/07/19 07:18:54;;;;;;;4.18;2.10;;;22.10;1.00;;;;;;5074330;28;20624;-74
2023/07/19 07:21:20;;;;;;;5.32;2.05;;;22.70;40.30;;;;;;5073025;28;20184;-73
2023/07/19 07:23:45;;;;;;;3.70;2.15;;;23.10;1.00;;;;;;5063927;28;20581;-74
2023/07/19 07:26:11;;;;;;;5.25;2.15;;;23.10;1.00;;;;;;5062467;28;20181;-73
2023/07/19 07:28:37;;;;;;;5.22;2.05;;;24.20;1.00;;;;;;5061253;28;20251;-72
2023/07/19 07:31:06;;;;;;;5.65;2.08;;;26.60;99.90;;;;;;5052983;28;20221;-72
2023/07/19 07:33:31;;;;;;;4.15;2.20;;;28.20;1.00;;;;;;5065800;28;20183;-73
2023/07/19 07:35:57;;;;;;;4.15;2.20;;;29.90;1.00;;;;;;5072810;28;20297;-73
2023/07/19 07:38:23;;;;;;;3.25;1.75;;;29.60;99.90;;;;;;5060243;28;20179;-74
2023/07/19 07:40:48;;;;;;;3.35;2.00;;;29.00;99.90;;;;;;5042084;28;20308;-73
2023/07/19 07:43:14;;;;;;;3.67;1.60;;;29.60;99.90;;;;;;5062169;28;20256;-75
2023/07/19 07:45:40;;;;;;;4.53;2.08;;;30.80;99.90;;;;;;5053858;28;20170;-76
2023/07/19 07:48:06;;;;;;;6.28;2.25;;;31.30;99.90;;;;;;5055721;28;20204;-78
2023/07/19 07:50:31;;;;;;;5.72;1.75;;;32.10;99.90;;;;;;5066876;28;20169;-77
2023/07/19 07:52:57;;;;;;;2.70;1.60;;;31.70;99.90;;;;;;5069303;28;20525;-75
2023/07/19 07:55:23;;;;;;;5.88;2.83;;;31.50;99.90;;;;;;5053716;28;20371;-75
2023/07/19 07:57:48;;;;;;;5.18;2.17;;;31.10;99.90;;;;;;5060556;28;20169;-77
2023/07/19 08:00:15;;;;;;;4.65;1.65;;;31.00;99.90;;;;;;5062903;28;20208;-75
2023/07/19 08:02:40;;;;;;;2.35;1.60;;;31.60;99.90;;;;;;5071842;28;20345;-75
2023/07/19 08:05:06;;;;;;;4.22;2.03;;;32.00;99.90;;;;;;5073687;28;20671;-75
2023/07/19 08:07:32;;;;;;;3.95;1.95;;;30.80;99.90;;;;;;5073820;28;20640;-75
2023/07/19 08:09:57;;;;;;;3.30;1.48;;;31.80;99.90;;;;;;5073802;28;20624;-76
2023/07/19 08:12:24;;;;;;;2.58;1.70;;;33.90;99.90;;;;;;5072091;28;20224;-76
2023/07/19 08:14:50;;;;;;;1.92;1.40;;;33.30;86.70;;;;;;5048081;28;20169;-76
2023/07/19 08:17:15;;;;;;;3.47;1.40;;;33.70;51.70;;;;;;5053082;28;20516;-76
2023/07/19 08:19:41;;;;;;;3.72;1.77;;;32.50;63.40;;;;;;5053400;28;20193;-74
2023/07/19 08:22:07;;;;;;;1.95;1.48;;;34.30;36.10;;;;;;5053163;28;20174;-75
2023/07/19 08:24:33;;;;;;;1.70;1.40;;;35.50;7.80;;;;;;5049971;28;20180;-75
2023/07/19 08:26:59;;;;;;;3.35;1.63;;;35.30;1.00;;;;;;5072639;28;20174;-74
2023/07/19 08:29:27;;;;;;;3.58;1.45;;;33.60;1.00;;;;;;5073395;28;20247;-74
2023/07/19 08:31:53;;;;;;;1.73;1.40;;;34.00;1.00;;;;;;5072498;28;20200;-74
2023/07/19 08:34:19;;;;;;;3.90;1.60;;;34.50;1.00;;;;;;5054963;28;20176;-75
2023/07/19 08:36:45;;;;;;;2.13;1.60;;;35.60;1.00;;;;;;5059980;28;20204;-74
2023/07/19 08:39:11;;;;;;;3.50;1.85;;;34.00;1.00;;;;;;5052433;28;20237;-75
2023/07/19 08:41:37;;;;;;;1.83;1.42;;;33.30;1.00;;;;;;5052614;28;20655;-75
2023/07/19 08:44:04;;;;;;;3.05;1.60;;;32.70;1.00;;;;;;5052988;28;20672;-74
2023/07/19 08:46:29;;;;;;;2.80;1.42;;;33.20;1.00;;;;;;5052981;28;20640;-76
2023/07/19 08:48:55;;;;;;;3.13;1.50;;;33.00;1.00;;;;;;5053028;28;20231;-73
2023/07/19 08:51:22;;;;;;;2.42;1.40;;;32.80;1.00;;;;;;5052983;28;20632;-74
2023/07/19 08:53:49;;;;;;;2.47;1.48;;;33.30;1.00;;;;;;5052686;28;20706;-74
2023/07/19 08:56:14;;;;;;;2.28;1.55;;;33.50;1.00;;;;;;5052604;28;20204;-75
2023/07/19 08:58:43;;;;;;;2.42;1.50;;;34.20;1.00;;;;;;5052952;28;20636;-74
2023/07/19 09:01:09;;;;;;;4.20;1.40;;;33.90;1.00;;;;;;5052826;28;20162;-76
2023/07/19 09:03:34;;;;;;;1.88;1.30;;;33.90;1.00;;;;;;5052373;28;20715;-74
2023/07/19 09:06:01;;;;;;;3.38;1.50;;;34.30;1.00;;;;;;5052776;28;20224;-75
2023/07/19 09:08:37;;;;;;;2.22;1.50;;;34.60;1.00;;;;;;5052603;28;20173;-75
2023/07/19 09:11:03;;;;;;;2.20;1.40;;;34.60;1.00;;;;;;5052395;28;20223;-75
2023/07/19 09:13:33;;;;;;;1.40;1.27;;;33.20;1.00;;;;;;5052055;28;20640;-75
2023/07/19 09:16:02;;;;;;;3.88;1.40;;;32.40;1.00;;;;;;5052627;28;20180;-74
2023/07/19 09:18:30;;;;;;;3.40;1.60;;;33.30;1.00;;;;;;5052181;28;20633;-75
2023/07/19 09:20:59;;;;;;;4.07;1.50;;;32.20;1.00;;;;;;5052540;28;20199;-74
2023/07/19 09:23:25;;;;;;;2.47;1.30;;;31.80;1.00;;;;;;5052302;28;20165;-75
2023/07/19 09:25:55;;;;;;;4.15;1.10;;;32.60;1.00;;;;;;5034578;28;20659;-75
2023/07/19 09:28:23;;;;;;;4.70;1.40;;;34.20;1.00;;;;;;5072881;28;20179;-74
2023/07/19 09:31:01;;;;;;;1.58;1.17;;;33.20;1.00;;;;;;5072283;28;20161;-73
2023/07/19 09:33:27;;;;;;;2.63;1.25;;;32.50;1.00;;;;;;5071906;28;20187;-74
2023/07/19 09:35:54;;;;;;;2.30;1.52;;;32.30;1.00;;;;;;5072176;28;20169;-77
2023/07/19 09:38:22;;;;;;;2.42;1.40;;;31.50;7.60;;;;;;5066942;28;20580;-73
2023/07/19 09:40:51;;;;;;;2.22;1.13;;;30.50;46.30;;;;;;5046299;28;20544;-75
2023/07/19 09:43:17;;;;;;;4.60;1.50;;;29.50;99.90;;;;;;5062470;28;20194;-75
2023/07/19 09:45:45;;;;;;;2.85;1.30;;;29.50;99.90;;;;;;5067869;28;20168;-73
2023/07/19 09:48:11;;;;;;;1.40;1.20;;;28.70;99.90;;;;;;5064004;28;20648;-75
2023/07/19 09:50:41;;;;;;;2.40;1.20;;;28.20;1.00;;;;;;5070771;28;20183;-76
2023/07/19 09:53:11;;;;;;;1.58;1.10;;;27.60;1.00;;;;;;5059172;28;20178;-74
2023/07/19 09:55:37;;;;;;;2.17;1.38;;;26.60;99.90;;;;;;5068905;28;20161;-75
2023/07/19 09:58:07;;;;;;;2.67;1.50;;;25.60;99.90;;;;;;5044439;28;20177;-74
2023/07/19 10:00:33;;;;;;;3.10;1.20;;;25.00;1.00;;;;;;5037894;28;20178;-75
2023/07/19 10:02:59;;;;;;;3.78;1.30;;;24.30;1.00;;;;;;5062444;28;20256;-75
2023/07/19 10:05:28;;;;;;;4.35;1.15;;;23.90;1.00;;;;;;5062476;28;20613;-76
2023/07/19 10:08:01;;;;;;;2.15;1.10;;;23.90;1.00;;;;;;5065807;28;20173;-74
2023/07/19 10:10:35;;;;;;;2.42;1.00;;;24.30;23.10;;;;;;5061758;28;20177;-75
2023/07/19 10:13:01;;;;;;;2.72;1.95;;;24.00;1.00;;;;;;5060629;28;20181;-78
2023/07/19 10:15:28;;;;;;;2.22;1.30;;;24.20;1.00;;;;;;5059509;28;20189;-76
2023/07/19 10:17:55;;;;;;;1.20;1.10;;;24.50;99.90;;;;;;5064328;28;20703;-75
2023/07/19 10:20:30;;;;;;;3.20;0.90;;;24.90;1.00;;;;;;5061636;28;20234;-74
2023/07/19 10:22:58;;;;;;;1.10;1.00;;;26.10;12.90;;;;;;5061092;28;20165;-74
2023/07/19 10:25:35;;;;;;;1.13;1.02;;;27.50;99.90;;;;;;5055763;28;20216;-74
2023/07/19 10:28:11;;;;;;;2.75;0.95;;;28.00;1.00;;;;;;5061240;28;20177;-75
2023/07/19 10:30:47;;;;;;;2.15;0.80;;;27.20;1.00;;;;;;5064575;28;20173;-73
2023/07/19 10:33:19;;;;;;;0.77;0.60;;;27.90;1.00;;;;;;5067680;28;20200;-75
2023/07/19 10:35:46;;;;;;;1.55;0.98;;;28.40;1.00;;;;;;5066874;28;20231;-75
2023/07/19 10:38:16;;;;;;;1.80;0.60;;;28.90;99.90;;;;;;5060128;28;20170;-74
2023/07/19 10:40:45;;;;;;;1.77;1.02;;;29.80;29.00;;;;;;5054526;28;20520;-74
2023/07/19 10:43:11;;;;;;;1.17;0.90;;;30.20;1.00;;;;;;5054900;28;20176;-74
2023/07/19 10:45:38;;;;;;;1.75;0.75;;;30.30;1.00;;;;;;5074546;28;20169;-76
2023/07/19 10:48:05;;;;;;;1.80;0.77;;;29.20;1.00;;;;;;5074069;28;20200;-74
2023/07/19 10:50:31;;;;;;;0.60;0.52;;;28.10;99.90;;;;;;5055402;28;20165;-75
2023/07/19 10:52:56;;;;;;;1.42;0.82;;;27.50;1.00;;;;;;5054836;28;20216;-75
2023/07/19 10:55:23;;;;;;;1.08;0.80;;;26.80;1.00;;;;;;5067682;28;20302;-75
2023/07/19 10:57:49;;;;;;;0.85;0.80;;;25.60;1.00;;;;;;5063203;28;20315;-73
2023/07/19 11:00:14;;;;;;;2.83;1.20;;;24.60;1.00;;;;;;5054520;28;20600;-73
2023/07/19 11:02:40;;;;;;;0.85;0.85;;;24.10;1.00;;;;;;5054722;28;20169;-75
2023/07/19 11:05:07;;;;;;;1.23;0.90;;;24.10;1.00;;;;;;5054275;28;20248;-75
2023/07/19 11:07:34;;;;;;;3.58;1.30;;;24.00;1.00;;;;;;5054225;28;20184;-76
2023/07/19 11:10:03;;;;;;;1.42;1.10;;;24.30;1.00;;;;;;5054843;28;20177;-74
2023/07/19 11:12:33;;;;;;;2.22;1.20;;;24.60;99.90;;;;;;5054043;28;20287;-76
2023/07/19 11:15:01;;;;;;;1.42;1.17;;;25.50;1.00;;;;;;5054821;28;20176;-76
2023/07/19 11:17:30;;;;;;;3.13;1.38;;;26.50;99.90;;;;;;5054486;28;20586;-75
2023/07/19 11:19:59;;;;;;;1.15;1.05;;;26.60;99.90;;;;;;5054024;28;20181;-74
2023/07/19 11:22:27;;;;;;;1.63;1.10;;;26.10;1.00;;;;;;5056335;28;20173;-74
2023/07/19 11:24:53;;;;;;;1.30;1.17;;;25.50;99.90;;;;;;5054258;28;20227;-73
2023/07/19 11:27:31;;;;;;;1.23;1.13;;;25.70;99.90;;;;;;5053791;28;20183;-74
2023/07/19 11:29:57;;;;;;;3.28;1.20;;;26.10;99.90;;;;;;5068389;28;20260;-75
2023/07/19 11:32:23;;;;;;;2.17;1.42;;;25.80;99.90;;;;;;5055562;28;20292;-75
2023/07/19 11:34:54;;;;;;;3.25;1.63;;;25.50;1.00;;;;;;5073665;28;20211;-76
2023/07/19 11:37:28;;;;;;;1.48;1.38;;;25.00;9.80;;;;;;5054193;28;20204;-76
2023/07/19 11:39:58;;;;;;;2.17;1.50;;;24.80;27.80;;;;;;5067051;28;20224;-75
2023/07/19 11:42:42;;;;;;;3.58;1.65;;;24.70;1.00;;;;;;5073873;28;20216;-74
2023/07/19 11:45:18;;;;;;;2.60;1.45;;;24.70;99.90;;;;;;5074201;28;20179;-73
2023/07/19 11:47:47;;;;;;;1.58;1.48;;;24.60;99.90;;;;;;5073329;28;20183;-75
2023/07/19 11:50:13;;;;;;;2.90;1.52;;;24.40;1.00;;;;;;5073358;28;20179;-75
2023/07/19 11:52:56;;;;;;;1.73;1.52;;;24.70;1.00;;;;;;5063477;28;20208;-74
2023/07/19 11:55:23;;;;;;;3.15;1.70;;;24.50;1.00;;;;;;5053419;28;20173;-75
2023/07/19 11:57:51;;;;;;;2.00;1.50;;;24.40;99.90;;;;;;5064236;28;20184;-74
2023/07/19 12:00:21;;;;;;;1.83;1.60;;;24.50;1.00;;;;;;5073545;28;20242;-75
2023/07/19 12:02:48;;;;;;;2.10;1.70;;;24.70;1.00;;;;;;5053490;28;20180;-74
2023/07/19 12:05:17;;;;;;;3.00;1.80;;;24.70;1.00;;;;;;5053358;28;20287;-75
2023/07/19 12:07:43;;;;;;;1.85;1.73;;;24.90;99.90;;;;;;5053428;28;20253;-76
2023/07/19 12:10:09;;;;;;;1.95;1.45;;;25.40;1.00;;;;;;5053523;28;20216;-75
2023/07/19 12:12:36;;;;;;;1.60;1.50;;;25.70;1.00;;;;;;5052994;28;20228;-77
2023/07/19 12:15:05;;;;;;;3.22;2.15;;;26.20;99.90;;;;;;5053681;28;20529;-75
2023/07/19 12:17:31;;;;;;;2.22;1.83;;;25.70;1.00;;;;;;5053036;28;20180;-77
2023/07/19 12:19:59;;;;;;;3.10;1.90;;;25.40;1.00;;;;;;5052802;28;20181;-75
2023/07/19 12:22:27;;;;;;;2.00;1.73;;;24.70;1.00;;;;;;5052999;28;20187;-75
2023/07/19 12:24:52;;;;;;;5.07;2.10;;;24.60;99.90;;;;;;5053300;28;20165;-75
2023/07/19 12:27:18;;;;;;;3.20;1.80;;;24.40;99.90;;;;;;5052943;28;20644;-73
2023/07/19 12:29:44;;;;;;;4.15;2.00;;;23.90;1.00;;;;;;5053251;28;20181;-74
2023/07/19 12:32:10;;;;;;;2.85;1.80;;;23.30;1.00;;;;;;5052802;28;20205;-73
2023/07/19 12:34:35;;;;;;;3.78;1.98;;;23.40;1.00;;;;;;5058817;28;20176;-74
2023/07/19 12:37:01;;;;;;;3.03;1.92;;;23.40;1.00;;;;;;5073276;28;20164;-76
2023/07/19 12:39:27;;;;;;;3.70;2.00;;;23.50;99.90;;;;;;5072265;28;20173;-75
2023/07/19 12:41:52;;;;;;;6.63;2.25;;;23.50;99.90;;;;;;5067193;28;20176;-75
2023/07/19 12:44:22;;;;;;;4.03;2.08;;;23.80;1.00;;;;;;5057241;28;20181;-76
2023/07/19 12:46:51;;;;;;;3.05;1.77;;;24.30;1.00;;;;;;5071074;28;20616;-76
2023/07/19 12:49:19;;;;;;;2.50;1.83;;;24.40;1.00;;;;;;5072212;28;20173;-76